Terminal Aerodrome Forecast
Issued by NWS Northern Indiana

Home | Current Version | Previous Version | Graphics & Text | Print | Product List | Glossary On
Versions: 1 2 3 4 5 6 7 8 9 10 11 12 13 14 15 16 17 18 19
000
FTUS43 KIWX 191100 AAA
TAFFWA
TAF AMD
KFWA 191122Z 1911/2006 00000KT 4SM BR FEW040
      TEMPO 1911/1912 1 1/2SM BR
     FM191400 22010KT P6SM SCT040
     FM192200 22010KT P6SM VCTS BKN035CB
     FM200200 VRB03KT P6SM SCT035=

USA.gov is the U.S. government's official web portal to all federal, state and local government web resources and services.